Detall de PIREP

Printer-friendly versionPDF version

[2017/02/27 11:42:00]
Flight IATA:CT1004
Pilot Number:012
Company ICAO:CAT
Aircraft Type:DC3/A
PAX:19
Aircraft Registration:PAX
Departing Airport: LEMD
Destination Airport: LEBL
Alternate Airport:LERS
Online: VATSIM
Route:PINAR R870 BRITO G5 LARDA UN725 LOBAR
Flight Level:F100
No Slew and time accel
No pause
Crash detect
Detect pilot in Cockpit between each 30 and 45 minutes
11:42 Zero fuel Weight: 20180 Lbs, Fuel Weight: 3042 Lbs
11:42 VATSIM:LEMD 271730Z 24011KT 200V260 9999 FEW060 13/05 Q1015 NOSIG
11:42 VATSIM:LEBL 271730Z 24018KT 9000 FEW020 13/11 Q1011 NOSIG
11:42 MWC 2017 BARCELONA
11:42 Parking Brakes off
11:46 Take-off
11:46 Take off Weight: 23202 Lbs
11:46 Wind: 228º @ 011 Knots Heading: 148º
11:46 POS N40º 28´ 43´´ W003º 34´ 12´´
11:46 Gear Up: 095 Knots
11:57 TOC
11:57 Fuel Weight: 2874 Lb
12:01 Wind:274º@021 Knots Heading: 035º Ground Speed: 174 Knots Altitude 10065 ft
12:16 Wind:253º@018 Knots Heading: 075º Ground Speed: 181 Knots Altitude 9983 ft
12:31 Wind:253º@031 Knots Heading: 019º Ground Speed: 181 Knots Altitude 9944 ft
12:46 Wind:251º@033 Knots Heading: 112º Ground Speed: 188 Knots Altitude 9950 ft
13:01 Wind:254º@039 Knots Heading: 115º Ground Speed: 196 Knots Altitude 9934 ft
13:16 Wind:268º@019 Knots Heading: 114º Ground Speed: 181 Knots Altitude 9963 ft
13:26 TOD
13:26 Fuel Weight: 1900 Lb
13:31 Wind:272º@023 Knots Heading: 113º Ground Speed: 175 Knots Altitude 5262 ft
13:39 Flaps:1 at 144 Knots
13:39 Gear Down: 145 Knots
13:40 Flaps:2 at 121 Knots
13:41 Flaps:3 at 111 Knots
13:42 Flaps:4 at 97 Knots
13:43 TouchDown:Rate -97 ft/min Speed: 64 Knots
13:44 VATSIM:LEBL 271930Z 25010KT 9999 FEW020 13/09 Q1011 NOSIG
13:44 Land
13:44 Wind:239º@014 Knots
13:44 Heading: 209º
13:44 Flight Duration:01:58
13:44 Landing Weight: 21951 Lbs
13:44 POS N41º 18´ 03´´ E002º 05´ 28´´
13:46 Parking brakes on
13:46 Block to Block Duration: 02:04
13:46 Final Fuel: 1759 Lbls
13:46 Spent Fuel: 1283 Lbls
13:46 Flight Length: 340 NM
13:46 TOD Land Length: 42 NM

Exportar CSV

Powered by Drupal - Modified by Danger4k